sensor_id;sensor_type;location;lat;lon;timestamp;pressure;altitude;pressure_sealevel;temperature;humidity
52923;BME280;38796;42.702;23.306;2022-11-15T00:00:49;95878.16;;;1.64;100.00
52923;BME280;38796;42.702;23.306;2022-11-15T00:03:06;95867.78;;;1.64;100.00
52923;BME280;38796;42.702;23.306;2022-11-15T00:05:23;95876.63;;;1.60;100.00
52923;BME280;38796;42.702;23.306;2022-11-15T00:07:40;95875.00;;;1.57;100.00
52923;BME280;38796;42.702;23.306;2022-11-15T00:10:10;95868.97;;;1.57;100.00
52923;BME280;38796;42.702;23.306;2022-11-15T00:12:27;95870.84;;;1.53;100.00
52923;BME280;38796;42.702;23.306;2022-11-15T00:14:45;95870.03;;;1.51;100.00
52923;BME280;38796;42.702;23.306;2022-11-15T00:17:02;95864.34;;;1.43;100.00
52923;BME280;38796;42.702;23.306;2022-11-15T00:19:19;95864.59;;;1.37;100.00
52923;BME280;38796;42.702;23.306;2022-11-15T00:21:37;95863.50;;;1.42;100.00
52923;BME280;38796;42.702;23.306;2022-11-15T00:23:54;95856.19;;;1.52;100.00
52923;BME280;38796;42.702;23.306;2022-11-15T00:26:12;95864.72;;;1.54;100.00
52923;BME280;38796;42.702;23.306;2022-11-15T00:28:29;95852.03;;;1.48;100.00
52923;BME280;38796;42.702;23.306;2022-11-15T00:30:48;95862.47;;;1.47;100.00
52923;BME280;38796;42.702;23.306;2022-11-15T00:33:05;95851.31;;;1.44;100.00
52923;BME280;38796;42.702;23.306;2022-11-15T00:35:27;95846.38;;;1.38;100.00
52923;BME280;38796;42.702;23.306;2022-11-15T00:37:44;95853.50;;;1.33;100.00
52923;BME280;38796;42.702;23.306;2022-11-15T00:40:06;95851.09;;;1.29;100.00
52923;BME280;38796;42.702;23.306;2022-11-15T00:42:23;95850.34;;;1.27;100.00
52923;BME280;38796;42.702;23.306;2022-11-15T00:44:40;95852.06;;;1.26;100.00
52923;BME280;38796;42.702;23.306;2022-11-15T00:46:58;95857.25;;;1.26;100.00
52923;BME280;38796;42.702;23.306;2022-11-15T00:49:15;95851.34;;;1.23;100.00
52923;BME280;38796;42.702;23.306;2022-11-15T00:51:32;95854.81;;;1.23;100.00
52923;BME280;38796;42.702;23.306;2022-11-15T00:53:49;95853.22;;;1.19;100.00
52923;BME280;38796;42.702;23.306;2022-11-15T00:56:06;95836.00;;;1.18;100.00
52923;BME280;38796;42.702;23.306;2022-11-15T00:58:23;95837.66;;;1.19;100.00
52923;BME280;38796;42.702;23.306;2022-11-15T01:00:40;95839.63;;;1.14;100.00
52923;BME280;38796;42.702;23.306;2022-11-15T01:02:59;95847.41;;;1.14;100.00
52923;BME280;38796;42.702;23.306;2022-11-15T01:05:16;95850.06;;;1.12;100.00
52923;BME280;38796;42.702;23.306;2022-11-15T01:07:34;95838.59;;;1.18;100.00
52923;BME280;38796;42.702;23.306;2022-11-15T01:09:51;95847.41;;;1.14;100.00
52923;BME280;38796;42.702;23.306;2022-11-15T01:12:08;95835.06;;;1.19;100.00
52923;BME280;38796;42.702;23.306;2022-11-15T01:14:25;95835.06;;;1.19;100.00
52923;BME280;38796;42.702;23.306;2022-11-15T01:16:41;95841.97;;;1.20;100.00
52923;BME280;38796;42.702;23.306;2022-11-15T01:19:00;95847.41;;;1.14;100.00
52923;BME280;38796;42.702;23.306;2022-11-15T01:21:19;95839.94;;;1.06;100.00
52923;BME280;38796;42.702;23.306;2022-11-15T01:23:36;95840.91;;;1.04;100.00
52923;BME280;38796;42.702;23.306;2022-11-15T01:25:58;95835.00;;;1.00;100.00
52923;BME280;38796;42.702;23.306;2022-11-15T01:28:15;95837.91;;;0.92;100.00
52923;BME280;38796;42.702;23.306;2022-11-15T01:30:32;95833.88;;;0.85;100.00
52923;BME280;38796;42.702;23.306;2022-11-15T01:32:49;95829.84;;;0.78;100.00
52923;BME280;38796;42.702;23.306;2022-11-15T01:35:08;95834.06;;;0.81;100.00
52923;BME280;38796;42.702;23.306;2022-11-15T01:37:24;95844.44;;;0.81;100.00
52923;BME280;38796;42.702;23.306;2022-11-15T01:39:41;95839.13;;;0.84;100.00
52923;BME280;38796;42.702;23.306;2022-11-15T01:41:58;95833.22;;;0.80;100.00
52923;BME280;38796;42.702;23.306;2022-11-15T01:44:38;95830.53;;;0.83;100.00
52923;BME280;38796;42.702;23.306;2022-11-15T01:46:55;95828.03;;;0.80;100.00
52923;BME280;38796;42.702;23.306;2022-11-15T01:49:16;95826.06;;;0.87;100.00
52923;BME280;38796;42.702;23.306;2022-11-15T01:51:35;95820.78;;;0.88;100.00
52923;BME280;38796;42.702;23.306;2022-11-15T01:53:55;95829.47;;;0.87;100.00
52923;BME280;38796;42.702;23.306;2022-11-15T01:56:18;95821.94;;;0.81;100.00
52923;BME280;38796;42.702;23.306;2022-11-15T01:58:37;95822.97;;;0.77;100.00
52923;BME280;38796;42.702;23.306;2022-11-15T02:00:55;95822.19;;;0.75;100.00
52923;BME280;38796;42.702;23.306;2022-11-15T02:03:15;95829.00;;;0.78;100.00
52923;BME280;38796;42.702;23.306;2022-11-15T02:05:32;95822.91;;;0.79;100.00
52923;BME280;38796;42.702;23.306;2022-11-15T02:07:53;95823.88;;;0.76;100.00
52923;BME280;38796;42.702;23.306;2022-11-15T02:10:13;95822.38;;;0.70;100.00
52923;BME280;38796;42.702;23.306;2022-11-15T02:12:31;95819.59;;;0.75;100.00
52923;BME280;38796;42.702;23.306;2022-11-15T02:14:49;95829.19;;;0.73;100.00
52923;BME280;38796;42.702;23.306;2022-11-15T02:17:19;95822.75;;;0.83;100.00
52923;BME280;38796;42.702;23.306;2022-11-15T02:22:37;95822.84;;;0.80;100.00
52923;BME280;38796;42.702;23.306;2022-11-15T02:25:23;95818.63;;;0.78;100.00
52923;BME280;38796;42.702;23.306;2022-11-15T02:28:21;95825.84;;;0.91;100.00
52923;BME280;38796;42.702;23.306;2022-11-15T02:30:44;95821.88;;;0.83;100.00
52923;BME280;38796;42.702;23.306;2022-11-15T02:33:10;95819.34;;;0.81;100.00
52923;BME280;38796;42.702;23.306;2022-11-15T02:35:38;95824.41;;;0.84;100.00
52923;BME280;38796;42.702;23.306;2022-11-15T02:38:06;95814.66;;;0.91;100.00
52923;BME280;38796;42.702;23.306;2022-11-15T02:40:35;95812.50;;;1.01;100.00
52923;BME280;38796;42.702;23.306;2022-11-15T02:42:58;95808.91;;;1.05;100.00
52923;BME280;38796;42.702;23.306;2022-11-15T02:45:37;95808.09;;;1.03;100.00
52923;BME280;38796;42.702;23.306;2022-11-15T02:47:58;95814.72;;;1.10;100.00
52923;BME280;38796;42.702;23.306;2022-11-15T02:50:18;95808.28;;;1.18;100.00
52923;BME280;38796;42.702;23.306;2022-11-15T02:52:35;95815.91;;;1.23;100.00
52923;BME280;38796;42.702;23.306;2022-11-15T02:54:53;95810.56;;;1.26;100.00
52923;BME280;38796;42.702;23.306;2022-11-15T02:57:14;95815.56;;;1.31;100.00
52923;BME280;38796;42.702;23.306;2022-11-15T03:00:00;95812.69;;;1.37;100.00
52923;BME280;38796;42.702;23.306;2022-11-15T03:02:28;95820.19;;;1.44;100.00
52923;BME280;38796;42.702;23.306;2022-11-15T03:04:53;95826.22;;;1.45;100.00
52923;BME280;38796;42.702;23.306;2022-11-15T03:07:15;95818.94;;;1.53;100.00
52923;BME280;38796;42.702;23.306;2022-11-15T03:09:42;95816.38;;;1.72;100.00
52923;BME280;38796;42.702;23.306;2022-11-15T03:12:03;95810.00;;;1.79;100.00
52923;BME280;38796;42.702;23.306;2022-11-15T03:14:25;95817.06;;;1.76;100.00
52923;BME280;38796;42.702;23.306;2022-11-15T03:16:49;95813.50;;;1.78;100.00
52923;BME280;38796;42.702;23.306;2022-11-15T03:19:19;95807.03;;;1.68;100.00
52923;BME280;38796;42.702;23.306;2022-11-15T03:21:40;95811.06;;;1.55;100.00
52923;BME280;38796;42.702;23.306;2022-11-15T03:23:58;95812.19;;;1.49;100.00
52923;BME280;38796;42.702;23.306;2022-11-15T03:26:21;95807.22;;;1.44;100.00
52923;BME280;38796;42.702;23.306;2022-11-15T03:28:43;95808.88;;;1.46;100.00
52923;BME280;38796;42.702;23.306;2022-11-15T03:31:01;95807.13;;;1.46;100.00
52923;BME280;38796;42.702;23.306;2022-11-15T03:33:39;95801.09;;;1.46;100.00
52923;BME280;38796;42.702;23.306;2022-11-15T03:35:57;95805.44;;;1.45;100.00
52923;BME280;38796;42.702;23.306;2022-11-15T03:38:20;95808.09;;;1.43;100.00
52923;BME280;38796;42.702;23.306;2022-11-15T03:40:40;95800.44;;;1.40;100.00
52923;BME280;38796;42.702;23.306;2022-11-15T03:43:02;95799.69;;;1.38;100.00
52923;BME280;38796;42.702;23.306;2022-11-15T03:45:24;95796.41;;;1.33;100.00
52923;BME280;38796;42.702;23.306;2022-11-15T03:47:46;95790.69;;;1.27;100.00
52923;BME280;38796;42.702;23.306;2022-11-15T03:50:10;95795.16;;;1.23;100.00
52923;BME280;38796;42.702;23.306;2022-11-15T03:52:32;95785.88;;;1.17;100.00
52923;BME280;38796;42.702;23.306;2022-11-15T03:54:53;95788.53;;;1.16;100.00
52923;BME280;38796;42.702;23.306;2022-11-15T03:57:10;95786.19;;;1.10;100.00
52923;BME280;38796;42.702;23.306;2022-11-15T03:59:27;95785.56;;;1.05;100.00
52923;BME280;38796;42.702;23.306;2022-11-15T04:01:44;95794.34;;;1.01;100.00
52923;BME280;38796;42.702;23.306;2022-11-15T04:04:01;95789.31;;;0.98;100.00
52923;BME280;38796;42.702;23.306;2022-11-15T04:06:18;95786.63;;;0.99;100.00
52923;BME280;38796;42.702;23.306;2022-11-15T04:08:35;95780.38;;;1.05;100.00
52923;BME280;38796;42.702;23.306;2022-11-15T04:10:53;95775.81;;;1.10;100.00
52923;BME280;38796;42.702;23.306;2022-11-15T04:13:11;95784.31;;;1.13;100.00
52923;BME280;38796;42.702;23.306;2022-11-15T04:15:28;95779.84;;;1.17;100.00
52923;BME280;38796;42.702;23.306;2022-11-15T04:17:46;95778.00;;;1.19;100.00
52923;BME280;38796;42.702;23.306;2022-11-15T04:20:05;95777.88;;;1.22;100.00
52923;BME280;38796;42.702;23.306;2022-11-15T04:22:40;95778.66;;;1.24;100.00
52923;BME280;38796;42.702;23.306;2022-11-15T04:25:14;95774.13;;;1.29;100.00
52923;BME280;38796;42.702;23.306;2022-11-15T04:27:39;95775.66;;;1.33;100.00
52923;BME280;38796;42.702;23.306;2022-11-15T04:29:57;95779.19;;;1.32;100.00
52923;BME280;38796;42.702;23.306;2022-11-15T04:32:14;95779.03;;;1.35;100.00
52923;BME280;38796;42.702;23.306;2022-11-15T04:34:30;95778.00;;;1.39;100.00
52923;BME280;38796;42.702;23.306;2022-11-15T04:36:47;95779.75;;;1.39;100.00
52923;BME280;38796;42.702;23.306;2022-11-15T04:39:22;95779.13;;;1.34;100.00
52923;BME280;38796;42.702;23.306;2022-11-15T04:41:39;95777.38;;;1.34;100.00
52923;BME280;38796;42.702;23.306;2022-11-15T04:43:57;95771.34;;;1.34;100.00
52923;BME280;38796;42.702;23.306;2022-11-15T04:46:14;95780.72;;;1.36;100.00
52923;BME280;38796;42.702;23.306;2022-11-15T04:48:31;95768.53;;;1.38;100.00
52923;BME280;38796;42.702;23.306;2022-11-15T04:50:48;95769.59;;;1.34;100.00
52923;BME280;38796;42.702;23.306;2022-11-15T04:53:08;95781.31;;;1.43;100.00
52923;BME280;38796;42.702;23.306;2022-11-15T04:55:25;95781.88;;;1.50;100.00
52923;BME280;38796;42.702;23.306;2022-11-15T04:57:42;95774.88;;;1.52;100.00
52923;BME280;38796;42.702;23.306;2022-11-15T05:00:01;95776.09;;;1.63;100.00
52923;BME280;38796;42.702;23.306;2022-11-15T05:02:19;95775.63;;;1.74;100.00
52923;BME280;38796;42.702;23.306;2022-11-15T05:04:38;95777.03;;;1.81;100.00
52923;BME280;38796;42.702;23.306;2022-11-15T05:06:54;95776.09;;;1.82;100.00
52923;BME280;38796;42.702;23.306;2022-11-15T05:09:11;95785.88;;;1.77;100.00
52923;BME280;38796;42.702;23.306;2022-11-15T05:11:29;95779.97;;;1.92;100.00
52923;BME280;38796;42.702;23.306;2022-11-15T05:13:47;95782.84;;;1.86;100.00
52923;BME280;38796;42.702;23.306;2022-11-15T05:16:06;95777.88;;;1.82;100.00
52923;BME280;38796;42.702;23.306;2022-11-15T05:18:22;95768.75;;;1.73;100.00
52923;BME280;38796;42.702;23.306;2022-11-15T05:20:39;95780.03;;;1.72;100.00
52923;BME280;38796;42.702;23.306;2022-11-15T05:22:56;95777.44;;;1.72;100.00
52923;BME280;38796;42.702;23.306;2022-11-15T05:25:14;95777.44;;;1.72;100.00
52923;BME280;38796;42.702;23.306;2022-11-15T05:27:32;95773.16;;;1.71;100.00
52923;BME280;38796;42.702;23.306;2022-11-15T05:29:49;95772.72;;;1.80;100.00
52923;BME280;38796;42.702;23.306;2022-11-15T05:32:08;95767.47;;;1.82;100.00
52923;BME280;38796;42.702;23.306;2022-11-15T05:34:26;95762.69;;;1.73;100.00
52923;BME280;38796;42.702;23.306;2022-11-15T05:36:43;95769.78;;;1.69;100.00
52923;BME280;38796;42.702;23.306;2022-11-15T05:39:02;95760.31;;;1.68;100.00
52923;BME280;38796;42.702;23.306;2022-11-15T05:41:28;95770.69;;;1.68;100.00
52923;BME280;38796;42.702;23.306;2022-11-15T05:43:48;95775.75;;;1.71;100.00
52923;BME280;38796;42.702;23.306;2022-11-15T05:46:06;95774.81;;;1.72;100.00
52923;BME280;38796;42.702;23.306;2022-11-15T05:48:25;95781.84;;;1.70;100.00
52923;BME280;38796;42.702;23.306;2022-11-15T05:50:45;95778.44;;;1.70;100.00
52923;BME280;38796;42.702;23.306;2022-11-15T05:53:10;95772.38;;;1.69;100.00
52923;BME280;38796;42.702;23.306;2022-11-15T05:55:29;95783.03;;;1.63;100.00
52923;BME280;38796;42.702;23.306;2022-11-15T05:57:46;95777.06;;;1.61;100.00
52923;BME280;38796;42.702;23.306;2022-11-15T06:00:05;95793.91;;;1.52;100.00
52923;BME280;38796;42.702;23.306;2022-11-15T06:02:22;95788.25;;;1.42;100.00
52923;BME280;38796;42.702;23.306;2022-11-15T06:04:41;95777.03;;;1.42;100.00
52923;BME280;38796;42.702;23.306;2022-11-15T06:06:58;95793.94;;;1.51;100.00
52923;BME280;38796;42.702;23.306;2022-11-15T06:09:15;95793.75;;;1.55;100.00
52923;BME280;38796;42.702;23.306;2022-11-15T06:11:32;95789.28;;;1.59;100.00
52923;BME280;38796;42.702;23.306;2022-11-15T06:13:49;95785.34;;;1.69;100.00
52923;BME280;38796;42.702;23.306;2022-11-15T06:16:06;95790.41;;;1.72;100.00
52923;BME280;38796;42.702;23.306;2022-11-15T06:18:23;95787.47;;;1.80;100.00
52923;BME280;38796;42.702;23.306;2022-11-15T06:20:41;95792.47;;;1.84;100.00
52923;BME280;38796;42.702;23.306;2022-11-15T06:22:59;95794.78;;;1.90;100.00
52923;BME280;38796;42.702;23.306;2022-11-15T06:25:17;95784.19;;;1.95;100.00
52923;BME280;38796;42.702;23.306;2022-11-15T06:27:34;95783.19;;;1.98;100.00
52923;BME280;38796;42.702;23.306;2022-11-15T06:29:52;95789.94;;;2.02;100.00
52923;BME280;38796;42.702;23.306;2022-11-15T06:32:09;95780.31;;;2.04;100.00
52923;BME280;38796;42.702;23.306;2022-11-15T06:34:57;95777.66;;;2.24;100.00
52923;BME280;38796;42.702;23.306;2022-11-15T06:37:42;95774.66;;;2.51;100.00
52923;BME280;38796;42.702;23.306;2022-11-15T06:39:59;95780.69;;;2.51;100.00
52923;BME280;38796;42.702;23.306;2022-11-15T06:42:16;95773.31;;;2.61;100.00
52923;BME280;38796;42.702;23.306;2022-11-15T06:44:33;95771.53;;;2.61;100.00
52923;BME280;38796;42.702;23.306;2022-11-15T06:46:50;95775.69;;;2.65;100.00
52923;BME280;38796;42.702;23.306;2022-11-15T06:49:07;95781.09;;;2.61;100.00
52923;BME280;38796;42.702;23.306;2022-11-15T06:51:24;95773.38;;;2.59;100.00
52923;BME280;38796;42.702;23.306;2022-11-15T06:53:42;95768.03;;;2.62;100.00
52923;BME280;38796;42.702;23.306;2022-11-15T06:55:59;95778.75;;;2.74;100.00
52923;BME280;38796;42.702;23.306;2022-11-15T06:58:17;95777.75;;;2.76;100.00
52923;BME280;38796;42.702;23.306;2022-11-15T07:00:34;95782.66;;;2.82;100.00
52923;BME280;38796;42.702;23.306;2022-11-15T07:02:51;95771.78;;;2.92;100.00
52923;BME280;38796;42.702;23.306;2022-11-15T07:05:08;95773.13;;;3.00;100.00
52923;BME280;38796;42.702;23.306;2022-11-15T07:07:25;95774.41;;;3.09;100.00
52923;BME280;38796;42.702;23.306;2022-11-15T07:09:44;95766.59;;;3.09;100.00
52923;BME280;38796;42.702;23.306;2022-11-15T07:12:01;95767.59;;;3.06;100.00
52923;BME280;38796;42.702;23.306;2022-11-15T07:14:22;95762.88;;;3.15;100.00
52923;BME280;38796;42.702;23.306;2022-11-15T07:16:40;95767.44;;;3.27;100.00
52923;BME280;38796;42.702;23.306;2022-11-15T07:18:57;95769.84;;;3.14;100.00
52923;BME280;38796;42.702;23.306;2022-11-15T07:21:17;95763.56;;;3.18;100.00
52923;BME280;38796;42.702;23.306;2022-11-15T07:23:42;95762.78;;;3.16;100.00
52923;BME280;38796;42.702;23.306;2022-11-15T07:26:00;95777.69;;;3.12;100.00
52923;BME280;38796;42.702;23.306;2022-11-15T07:28:17;95776.19;;;3.08;100.00
52923;BME280;38796;42.702;23.306;2022-11-15T07:30:35;95774.41;;;2.92;100.00
52923;BME280;38796;42.702;23.306;2022-11-15T07:33:00;95772.50;;;2.78;100.00
52923;BME280;38796;42.702;23.306;2022-11-15T07:35:17;95776.38;;;2.69;100.00
52923;BME280;38796;42.702;23.306;2022-11-15T07:37:33;95772.13;;;2.85;100.00
52923;BME280;38796;42.702;23.306;2022-11-15T07:39:50;95776.63;;;2.82;100.00
52923;BME280;38796;42.702;23.306;2022-11-15T07:42:09;95766.59;;;2.92;100.00
52923;BME280;38796;42.702;23.306;2022-11-15T07:44:47;95777.22;;;2.87;100.00
52923;BME280;38796;42.702;23.306;2022-11-15T07:47:06;95763.53;;;2.83;100.00
52923;BME280;38796;42.702;23.306;2022-11-15T07:49:23;95768.59;;;2.86;100.00
52923;BME280;38796;42.702;23.306;2022-11-15T07:51:40;95770.66;;;2.97;100.00
52923;BME280;38796;42.702;23.306;2022-11-15T07:53:58;95765.22;;;3.02;100.00
52923;BME280;38796;42.702;23.306;2022-11-15T07:56:16;95773.47;;;3.10;100.00
52923;BME280;38796;42.702;23.306;2022-11-15T07:58:34;95767.97;;;3.16;100.00
52923;BME280;38796;42.702;23.306;2022-11-15T08:00:51;95765.28;;;3.35;100.00
52923;BME280;38796;42.702;23.306;2022-11-15T08:03:09;95765.13;;;3.38;100.00
52923;BME280;38796;42.702;23.306;2022-11-15T08:05:27;95765.66;;;3.27;100.00
52923;BME280;38796;42.702;23.306;2022-11-15T08:07:43;95760.97;;;3.51;100.00
52923;BME280;38796;42.702;23.306;2022-11-15T08:10:01;95763.19;;;3.59;100.00
52923;BME280;38796;42.702;23.306;2022-11-15T08:12:22;95768.78;;;3.84;100.00
52923;BME280;38796;42.702;23.306;2022-11-15T08:14:41;95764.91;;;3.92;100.00
52923;BME280;38796;42.702;23.306;2022-11-15T08:16:58;95763.09;;;3.94;100.00
52923;BME280;38796;42.702;23.306;2022-11-15T08:19:15;95755.13;;;3.97;100.00
52923;BME280;38796;42.702;23.306;2022-11-15T08:21:35;95761.75;;;3.87;100.00
52923;BME280;38796;42.702;23.306;2022-11-15T08:24:01;95762.53;;;3.71;100.00
52923;BME280;38796;42.702;23.306;2022-11-15T08:26:18;95753.66;;;3.75;100.00
52923;BME280;38796;42.702;23.306;2022-11-15T08:28:35;95762.38;;;3.74;100.00
52923;BME280;38796;42.702;23.306;2022-11-15T08:30:54;95747.41;;;3.62;100.00
52923;BME280;38796;42.702;23.306;2022-11-15T08:33:12;95757.50;;;3.68;100.00
52923;BME280;38796;42.702;23.306;2022-11-15T08:35:30;95749.59;;;3.70;100.00
52923;BME280;38796;42.702;23.306;2022-11-15T08:37:47;95748.44;;;3.75;100.00
52923;BME280;38796;42.702;23.306;2022-11-15T08:40:05;95739.53;;;3.95;100.00
52923;BME280;38796;42.702;23.306;2022-11-15T08:42:23;95736.88;;;3.97;100.00
52923;BME280;38796;42.702;23.306;2022-11-15T08:44:40;95743.94;;;4.26;100.00
52923;BME280;38796;42.702;23.306;2022-11-15T08:46:58;95745.69;;;4.42;100.00
52923;BME280;38796;42.702;23.306;2022-11-15T08:49:15;95745.13;;;4.37;100.00
52923;BME280;38796;42.702;23.306;2022-11-15T08:51:36;95734.84;;;4.33;100.00
52923;BME280;38796;42.702;23.306;2022-11-15T08:53:53;95732.56;;;4.43;99.95
52923;BME280;38796;42.702;23.306;2022-11-15T08:56:16;95732.81;;;4.39;99.89
52923;BME280;38796;42.702;23.306;2022-11-15T08:58:33;95732.38;;;4.46;100.00
52923;BME280;38796;42.702;23.306;2022-11-15T09:00:51;95725.34;;;4.78;99.17
52923;BME280;38796;42.702;23.306;2022-11-15T09:03:09;95725.84;;;4.85;98.17
52923;BME280;38796;42.702;23.306;2022-11-15T09:05:26;95723.69;;;4.77;97.13
52923;BME280;38796;42.702;23.306;2022-11-15T09:07:43;95716.25;;;4.86;96.90
52923;BME280;38796;42.702;23.306;2022-11-15T09:10:06;95713.41;;;4.74;96.19
52923;BME280;38796;42.702;23.306;2022-11-15T09:12:34;95713.69;;;4.70;96.64
52923;BME280;38796;42.702;23.306;2022-11-15T09:14:50;95711.81;;;4.72;97.01
52923;BME280;38796;42.702;23.306;2022-11-15T09:17:08;95706.91;;;4.81;96.53
52923;BME280;38796;42.702;23.306;2022-11-15T09:19:27;95707.47;;;4.87;95.95
52923;BME280;38796;42.702;23.306;2022-11-15T09:21:43;95704.13;;;4.85;95.46
52923;BME280;38796;42.702;23.306;2022-11-15T09:24:00;95702.97;;;4.74;96.25
52923;BME280;38796;42.702;23.306;2022-11-15T09:26:18;95694.59;;;4.53;97.03
52923;BME280;38796;42.702;23.306;2022-11-15T09:28:36;95695.53;;;4.82;97.42
52923;BME280;38796;42.702;23.306;2022-11-15T09:30:56;95688.72;;;5.10;96.24
52923;BME280;38796;42.702;23.306;2022-11-15T09:33:13;95689.91;;;5.19;94.45
52923;BME280;38796;42.702;23.306;2022-11-15T09:35:32;95686.31;;;5.21;94.35
52923;BME280;38796;42.702;23.306;2022-11-15T09:37:49;95683.97;;;5.17;94.75
52923;BME280;38796;42.702;23.306;2022-11-15T09:40:13;95683.31;;;5.13;93.91
52923;BME280;38796;42.702;23.306;2022-11-15T09:42:44;95681.44;;;5.15;94.55
52923;BME280;38796;42.702;23.306;2022-11-15T09:45:14;95673.88;;;5.11;94.05
52923;BME280;38796;42.702;23.306;2022-11-15T09:47:47;95672.97;;;5.26;94.01
52923;BME280;38796;42.702;23.306;2022-11-15T09:50:10;95671.41;;;5.23;94.00
52923;BME280;38796;42.702;23.306;2022-11-15T09:52:11;95666.53;;;5.32;93.63
52923;BME280;38796;42.702;23.306;2022-11-15T09:54:11;95661.88;;;5.51;92.73
52923;BME280;38796;42.702;23.306;2022-11-15T09:56:36;95662.97;;;5.61;91.90
52923;BME280;38796;42.702;23.306;2022-11-15T09:58:39;95652.53;;;5.61;91.86
52923;BME280;38796;42.702;23.306;2022-11-15T10:00:44;95650.28;;;5.69;91.91
52923;BME280;38796;42.702;23.306;2022-11-15T10:02:57;95642.34;;;5.85;91.09
52923;BME280;38796;42.702;23.306;2022-11-15T10:04:58;95647.56;;;6.26;89.66
52923;BME280;38796;42.702;23.306;2022-11-15T10:07:01;95639.66;;;6.68;87.15
52923;BME280;38796;42.702;23.306;2022-11-15T10:09:07;95639.72;;;6.66;87.54
52923;BME280;38796;42.702;23.306;2022-11-15T10:11:10;95634.41;;;6.81;86.41
52923;BME280;38796;42.702;23.306;2022-11-15T10:13:32;95632.91;;;7.79;82.59
52923;BME280;38796;42.702;23.306;2022-11-15T10:15:31;95624.50;;;8.23;79.51
52923;BME280;38796;42.702;23.306;2022-11-15T10:17:51;95623.56;;;9.52;74.37
52923;BME280;38796;42.702;23.306;2022-11-15T10:19:59;95625.47;;;9.50;73.38
52923;BME280;38796;42.702;23.306;2022-11-15T10:22:16;95604.69;;;11.30;67.71
52923;BME280;38796;42.702;23.306;2022-11-15T10:24:23;95609.69;;;12.64;62.57
52923;BME280;38796;42.702;23.306;2022-11-15T10:26:23;95601.13;;;13.85;60.40
52923;BME280;38796;42.702;23.306;2022-11-15T10:28:25;95594.66;;;13.98;56.85
52923;BME280;38796;42.702;23.306;2022-11-15T10:30:37;95595.16;;;13.46;58.37
52923;BME280;38796;42.702;23.306;2022-11-15T10:32:36;95586.38;;;14.10;57.29
52923;BME280;38796;42.702;23.306;2022-11-15T10:34:36;95591.38;;;14.59;55.51
52923;BME280;38796;42.702;23.306;2022-11-15T10:36:34;95577.66;;;14.81;54.00
52923;BME280;38796;42.702;23.306;2022-11-15T10:38:33;95575.22;;;14.52;54.46
52923;BME280;38796;42.702;23.306;2022-11-15T10:40:32;95577.31;;;13.85;55.76
52923;BME280;38796;42.702;23.306;2022-11-15T10:42:31;95576.66;;;13.36;57.22
52923;BME280;38796;42.702;23.306;2022-11-15T10:44:29;95572.53;;;13.61;56.35
52923;BME280;38796;42.702;23.306;2022-11-15T10:46:28;95574.63;;;13.58;56.47
52923;BME280;38796;42.702;23.306;2022-11-15T10:48:43;95559.75;;;13.57;56.45
52923;BME280;38796;42.702;23.306;2022-11-15T10:50:43;95567.63;;;12.03;60.40
52923;BME280;38796;42.702;23.306;2022-11-15T10:52:45;95567.84;;;10.68;64.68
52923;BME280;38796;42.702;23.306;2022-11-15T10:54:47;95565.75;;;9.52;69.84
52923;BME280;38796;42.702;23.306;2022-11-15T10:56:50;95558.91;;;9.05;71.94
52923;BME280;38796;42.702;23.306;2022-11-15T10:58:51;95563.66;;;8.77;73.91
52923;BME280;38796;42.702;23.306;2022-11-15T11:00:53;95559.22;;;8.66;74.01
52923;BME280;38796;42.702;23.306;2022-11-15T11:02:57;95552.50;;;8.03;76.58
52923;BME280;38796;42.702;23.306;2022-11-15T11:04:55;95549.69;;;7.69;78.94
52923;BME280;38796;42.702;23.306;2022-11-15T11:06:57;95540.31;;;7.54;80.00
52923;BME280;38796;42.702;23.306;2022-11-15T11:08:58;95538.81;;;7.26;81.42
52923;BME280;38796;42.702;23.306;2022-11-15T11:10:58;95539.44;;;7.30;81.50
52923;BME280;38796;42.702;23.306;2022-11-15T11:13:14;95543.50;;;7.34;81.58
52923;BME280;38796;42.702;23.306;2022-11-15T11:15:14;95531.66;;;7.41;81.23
52923;BME280;38796;42.702;23.306;2022-11-15T11:17:17;95531.84;;;7.38;81.88
52923;BME280;38796;42.702;23.306;2022-11-15T11:19:40;95531.06;;;7.61;81.00
52923;BME280;38796;42.702;23.306;2022-11-15T11:24:06;95524.22;;;7.35;81.45
52923;BME280;38796;42.702;23.306;2022-11-15T11:26:18;95512.06;;;7.34;81.60
52923;BME280;38796;42.702;23.306;2022-11-15T11:28:37;95506.41;;;7.40;82.52
52923;BME280;38796;42.702;23.306;2022-11-15T11:30:46;95507.38;;;7.13;82.75
52923;BME280;38796;42.702;23.306;2022-11-15T11:33:13;95505.91;;;7.22;83.03
52923;BME280;38796;42.702;23.306;2022-11-15T11:35:19;95502.84;;;7.28;82.79
52923;BME280;38796;42.702;23.306;2022-11-15T11:37:25;95497.44;;;7.06;83.40
52923;BME280;38796;42.702;23.306;2022-11-15T11:39:31;95486.97;;;7.06;83.97
52923;BME280;38796;42.702;23.306;2022-11-15T11:41:43;95472.84;;;6.95;84.24
52923;BME280;38796;42.702;23.306;2022-11-15T11:43:55;95475.38;;;6.97;84.62
52923;BME280;38796;42.702;23.306;2022-11-15T11:46:17;95467.06;;;7.03;84.11
52923;BME280;38796;42.702;23.306;2022-11-15T11:48:26;95472.47;;;6.76;85.15
52923;BME280;38796;42.702;23.306;2022-11-15T11:50:29;95471.72;;;6.87;85.01
52923;BME280;38796;42.702;23.306;2022-11-15T11:52:33;95465.13;;;6.94;84.94
52923;BME280;38796;42.702;23.306;2022-11-15T11:54:37;95465.41;;;7.15;84.36
52923;BME280;38796;42.702;23.306;2022-11-15T11:56:40;95456.59;;;7.16;84.27
52923;BME280;38796;42.702;23.306;2022-11-15T11:58:42;95454.59;;;7.19;84.04
52923;BME280;38796;42.702;23.306;2022-11-15T12:00:46;95458.59;;;7.12;84.49
52923;BME280;38796;42.702;23.306;2022-11-15T12:02:46;95450.94;;;7.09;84.57
52923;BME280;38796;42.702;23.306;2022-11-15T12:04:49;95447.63;;;7.07;84.47